Elista Airport
URWI : now visible

Airfield :











YOU CAN JOIN US ON...

 
LOGIN :

Register | Disclaimer

   EN    FR    IT 

 









Legend :    VFR   Marginal VFR   IFR   Intensive IFR   Very Intensive IFR
Visi :
Ceiling :
>= 8 km
>= 3000ft
5 to 8 km
1000 to 3000 ft
1500m to 5 km
500 to 1000 ft
800 to 1500m
200 to 500 ft
< 800m
< 200 ft
Symbols :   Thunderstorms  Fog  Heavy snow  Heavy precipitations  Wind > 20 kt






- Airport Elevation : 501 ft
- IATA code : ESL


URWI - Elista

CURRENT METAR :
  • 241800Z AUTO 14009MPS 9999 // ///071/// 04/02 Q1002

EXPIRED METARs :
  • 241730Z 13007MPS 9999 -SHRA SCT055CB 04/03 Q1003 R09/190055 TEMPO 14009G14MPS
  • 241700Z 14007MPS 9999 -SHRA SCT///CB 04/03 Q1003 R09/190055 TEMPO 14009G14MPS
  • 241630Z 14008MPS 9999 -SHRA BKN054CB 05/03 Q1003 R09/190055 TEMPO 14009G14MPS
  • 241600Z 14007MPS 9999 -SHRA SCT042CB 05/03 Q1004 R09/190055 TEMPO 14009G14MPS
  • 241530Z 14007MPS 9999 -SHRA SCT044CB 05/04 Q1004 R09/190055 TEMPO 16009G14MPS 2000 SHRA BR BKN005 SCT020CB

TAF TAF URWI
Valid from the 24 at 15:00 until the 25 at 00:00 UTC


241400Z 2415/2424 15009G14MPS 3100 -SHRA BR BKN011 BKN020CB
TEMPO 2415/2424 17010G16MPS BKN007 SCT020CB



MET'MAP, your aeronautical weather chart ! - Copyright ORBIFLY December 2007 - Disclaimer

ORBIFLY MET'MAP TEAM :

Programming & Development : Alexandra Zaïnal
Concept & original design : Baudouin d'Aumeries
Assistance for programming : Marc-Olivier Méhu
Technical & hardware support : Manuel Goepfert

Contact : metmap@orbifly.com




SOURCES & CREDITS :

   NOAA       Earth
Advisory